sensor_id;sensor_type;location;lat;lon;timestamp;pressure;altitude;pressure_sealevel;temperature;humidity
33404;BME280;19751;40.274;18.268;2023-02-16T00:01:42;102641.63;;;8.11;100.00
33404;BME280;19751;40.274;18.268;2023-02-16T00:04:16;102649.53;;;8.12;100.00
33404;BME280;19751;40.274;18.268;2023-02-16T00:06:42;102642.09;;;8.16;100.00
33404;BME280;19751;40.274;18.268;2023-02-16T00:09:07;102630.63;;;8.14;100.00
33404;BME280;19751;40.274;18.268;2023-02-16T00:11:34;102637.72;;;8.04;100.00
33404;BME280;19751;40.274;18.268;2023-02-16T00:14:19;102650.06;;;7.95;100.00
33404;BME280;19751;40.274;18.268;2023-02-16T00:16:51;102641.81;;;7.87;100.00
33404;BME280;19751;40.274;18.268;2023-02-16T00:21:57;102636.97;;;7.69;100.00
33404;BME280;19751;40.274;18.268;2023-02-16T00:24:24;102635.88;;;7.61;100.00
33404;BME280;19751;40.274;18.268;2023-02-16T00:26:51;102642.72;;;7.42;100.00
33404;BME280;19751;40.274;18.268;2023-02-16T00:29:32;102636.63;;;7.29;100.00
33404;BME280;19751;40.274;18.268;2023-02-16T00:32:00;102648.81;;;7.22;100.00
33404;BME280;19751;40.274;18.268;2023-02-16T00:34:34;102638.69;;;7.14;100.00
33404;BME280;19751;40.274;18.268;2023-02-16T00:37:05;102634.78;;;7.07;100.00
33404;BME280;19751;40.274;18.268;2023-02-16T00:39:32;102630.88;;;7.00;100.00
33404;BME280;19751;40.274;18.268;2023-02-16T00:42:00;102631.38;;;6.94;100.00
33404;BME280;19751;40.274;18.268;2023-02-16T00:46:55;102639.22;;;6.73;100.00
33404;BME280;19751;40.274;18.268;2023-02-16T00:49:22;102630.72;;;6.68;100.00
33404;BME280;19751;40.274;18.268;2023-02-16T00:51:48;102633.84;;;6.62;100.00
33404;BME280;19751;40.274;18.268;2023-02-16T00:54:14;102637.72;;;6.58;100.00
33404;BME280;19751;40.274;18.268;2023-02-16T00:56:40;102638.06;;;6.53;100.00
33404;BME280;19751;40.274;18.268;2023-02-16T00:59:08;102636.81;;;6.46;100.00
33404;BME280;19751;40.274;18.268;2023-02-16T01:01:36;102633.88;;;6.38;100.00
33404;BME280;19751;40.274;18.268;2023-02-16T01:04:05;102630.69;;;6.33;100.00
33404;BME280;19751;40.274;18.268;2023-02-16T01:06:31;102634.34;;;6.32;100.00
33404;BME280;19751;40.274;18.268;2023-02-16T01:09:18;102628.16;;;6.31;100.00
33404;BME280;19751;40.274;18.268;2023-02-16T01:12:07;102615.13;;;6.38;100.00
33404;BME280;19751;40.274;18.268;2023-02-16T01:14:34;102619.19;;;6.43;100.00
33404;BME280;19751;40.274;18.268;2023-02-16T01:16:59;102619.06;;;6.45;100.00
33404;BME280;19751;40.274;18.268;2023-02-16T01:19:25;102618.00;;;6.47;100.00
33404;BME280;19751;40.274;18.268;2023-02-16T01:21:50;102612.63;;;6.47;100.00
33404;BME280;19751;40.274;18.268;2023-02-16T01:24:16;102619.06;;;6.45;100.00
33404;BME280;19751;40.274;18.268;2023-02-16T01:26:45;102610.81;;;6.48;100.00
33404;BME280;19751;40.274;18.268;2023-02-16T01:29:17;102615.19;;;6.49;100.00
33404;BME280;19751;40.274;18.268;2023-02-16T01:31:43;102611.16;;;6.43;100.00
33404;BME280;19751;40.274;18.268;2023-02-16T01:34:09;102609.69;;;6.39;100.00
33404;BME280;19751;40.274;18.268;2023-02-16T01:36:41;102608.09;;;6.37;100.00
33404;BME280;19751;40.274;18.268;2023-02-16T01:39:08;102605.63;;;6.34;100.00
33404;BME280;19751;40.274;18.268;2023-02-16T01:44:28;102601.75;;;6.27;100.00
33404;BME280;19751;40.274;18.268;2023-02-16T01:47:05;102605.13;;;6.29;100.00
33404;BME280;19751;40.274;18.268;2023-02-16T01:49:31;102592.50;;;6.31;100.00
33404;BME280;19751;40.274;18.268;2023-02-16T02:00:29;102596.97;;;6.19;100.00
33404;BME280;19751;40.274;18.268;2023-02-16T02:02:59;102595.69;;;6.12;100.00
33404;BME280;19751;40.274;18.268;2023-02-16T02:05:45;102594.00;;;6.11;100.00
33404;BME280;19751;40.274;18.268;2023-02-16T02:11:08;102598.66;;;6.20;100.00
33404;BME280;19751;40.274;18.268;2023-02-16T02:16:09;102599.63;;;6.19;100.00
33404;BME280;19751;40.274;18.268;2023-02-16T02:18:35;102598.03;;;6.16;100.00
33404;BME280;19751;40.274;18.268;2023-02-16T02:40:52;102589.22;;;5.66;100.00
33404;BME280;19751;40.274;18.268;2023-02-16T02:43:30;102587.25;;;5.57;100.00
33404;BME280;19751;40.274;18.268;2023-02-16T02:46:13;102591.09;;;5.53;100.00
33404;BME280;19751;40.274;18.268;2023-02-16T02:48:41;102591.44;;;5.48;100.00
33404;BME280;19751;40.274;18.268;2023-02-16T02:56:40;102585.78;;;5.40;100.00
33404;BME280;19751;40.274;18.268;2023-02-16T02:59:25;102594.78;;;5.39;100.00
33404;BME280;19751;40.274;18.268;2023-02-16T03:02:15;102596.19;;;5.32;100.00
33404;BME280;19751;40.274;18.268;2023-02-16T03:04:43;102587.84;;;5.24;100.00
33404;BME280;19751;40.274;18.268;2023-02-16T03:07:11;102591.91;;;5.17;100.00
33404;BME280;19751;40.274;18.268;2023-02-16T03:09:37;102585.94;;;5.13;100.00
33404;BME280;19751;40.274;18.268;2023-02-16T03:12:04;102583.50;;;5.10;100.00
33404;BME280;19751;40.274;18.268;2023-02-16T03:14:52;102588.28;;;5.05;100.00
33404;BME280;19751;40.274;18.268;2023-02-16T03:17:24;102587.44;;;5.05;100.00
33404;BME280;19751;40.274;18.268;2023-02-16T03:20:11;102581.22;;;5.17;100.00
33404;BME280;19751;40.274;18.268;2023-02-16T03:22:57;102572.78;;;5.23;100.00
33404;BME280;19751;40.274;18.268;2023-02-16T03:25:42;102575.47;;;5.23;100.00
33404;BME280;19751;40.274;18.268;2023-02-16T03:28:28;102582.72;;;5.21;100.00
33404;BME280;19751;40.274;18.268;2023-02-16T03:31:17;102574.38;;;5.26;100.00
33404;BME280;19751;40.274;18.268;2023-02-16T03:33:45;102569.66;;;5.29;100.00
33404;BME280;19751;40.274;18.268;2023-02-16T03:36:11;102573.09;;;5.31;100.00
33404;BME280;19751;40.274;18.268;2023-02-16T03:38:37;102570.19;;;5.34;100.00
33404;BME280;19751;40.274;18.268;2023-02-16T03:41:04;102572.84;;;5.34;100.00
33404;BME280;19751;40.274;18.268;2023-02-16T03:43:30;102573.81;;;5.33;100.00
33404;BME280;19751;40.274;18.268;2023-02-16T03:45:56;102578.19;;;5.34;100.00
33404;BME280;19751;40.274;18.268;2023-02-16T03:48:21;102571.78;;;5.37;100.00
33404;BME280;19751;40.274;18.268;2023-02-16T03:50:47;102575.19;;;5.39;100.00
33404;BME280;19751;40.274;18.268;2023-02-16T03:53:12;102573.50;;;5.38;100.00
33404;BME280;19751;40.274;18.268;2023-02-16T03:55:43;102565.47;;;5.38;100.00
33404;BME280;19751;40.274;18.268;2023-02-16T03:58:12;102566.44;;;5.37;100.00
33404;BME280;19751;40.274;18.268;2023-02-16T04:00:38;102563.78;;;5.37;100.00
33404;BME280;19751;40.274;18.268;2023-02-16T04:03:05;102564.41;;;5.40;100.00
33404;BME280;19751;40.274;18.268;2023-02-16T04:05:31;102567.09;;;5.40;100.00
33404;BME280;19751;40.274;18.268;2023-02-16T04:07:57;102572.44;;;5.40;100.00
33404;BME280;19751;40.274;18.268;2023-02-16T04:10:22;102579.94;;;5.35;100.00
33404;BME280;19751;40.274;18.268;2023-02-16T04:12:48;102586.13;;;5.36;100.00
33404;BME280;19751;40.274;18.268;2023-02-16T04:15:17;102580.78;;;5.36;100.00
33404;BME280;19751;40.274;18.268;2023-02-16T04:17:43;102577.47;;;5.32;100.00
33404;BME280;19751;40.274;18.268;2023-02-16T04:20:12;102574.78;;;5.32;100.00
33404;BME280;19751;40.274;18.268;2023-02-16T04:22:38;102571.63;;;5.27;100.00
33404;BME280;19751;40.274;18.268;2023-02-16T04:25:03;102576.84;;;5.16;100.00
33404;BME280;19751;40.274;18.268;2023-02-16T04:27:29;102565.97;;;5.06;100.00
33404;BME280;19751;40.274;18.268;2023-02-16T04:29:54;102557.34;;;5.03;100.00
33404;BME280;19751;40.274;18.268;2023-02-16T04:32:20;102560.94;;;5.02;100.00
33404;BME280;19751;40.274;18.268;2023-02-16T04:34:45;102571.88;;;4.98;100.00
33404;BME280;19751;40.274;18.268;2023-02-16T04:37:11;102567.47;;;4.97;100.00
33404;BME280;19751;40.274;18.268;2023-02-16T04:39:36;102572.72;;;4.99;100.00
33404;BME280;19751;40.274;18.268;2023-02-16T04:42:03;102574.28;;;5.02;100.00
33404;BME280;19751;40.274;18.268;2023-02-16T04:44:28;102565.44;;;5.01;100.00
33404;BME280;19751;40.274;18.268;2023-02-16T04:46:54;102568.00;;;5.03;100.00
33404;BME280;19751;40.274;18.268;2023-02-16T04:49:19;102566.19;;;5.03;100.00
33404;BME280;19751;40.274;18.268;2023-02-16T04:51:45;102568.53;;;5.08;100.00
33404;BME280;19751;40.274;18.268;2023-02-16T04:54:10;102569.25;;;5.10;100.00
33404;BME280;19751;40.274;18.268;2023-02-16T04:56:36;102571.00;;;5.11;100.00
33404;BME280;19751;40.274;18.268;2023-02-16T04:59:02;102564.03;;;5.08;100.00
33404;BME280;19751;40.274;18.268;2023-02-16T05:01:28;102572.25;;;5.05;100.00
33404;BME280;19751;40.274;18.268;2023-02-16T05:03:54;102574.09;;;5.05;100.00
33404;BME280;19751;40.274;18.268;2023-02-16T05:06:19;102571.53;;;5.03;100.00
33404;BME280;19751;40.274;18.268;2023-02-16T05:08:45;102575.19;;;5.02;100.00
33404;BME280;19751;40.274;18.268;2023-02-16T05:11:11;102583.28;;;5.01;100.00
33404;BME280;19751;40.274;18.268;2023-02-16T05:13:56;102571.00;;;4.98;100.00
33404;BME280;19751;40.274;18.268;2023-02-16T05:16:41;102575.25;;;5.01;100.00
33404;BME280;19751;40.274;18.268;2023-02-16T05:19:06;102574.28;;;5.02;100.00
33404;BME280;19751;40.274;18.268;2023-02-16T05:21:32;102580.59;;;5.01;100.00
33404;BME280;19751;40.274;18.268;2023-02-16T05:24:07;102581.69;;;4.98;100.00
33404;BME280;19751;40.274;18.268;2023-02-16T05:26:35;102578.16;;;4.97;100.00
33404;BME280;19751;40.274;18.268;2023-02-16T05:29:00;102577.41;;;4.95;100.00
33404;BME280;19751;40.274;18.268;2023-02-16T05:31:26;102582.22;;;4.90;100.00
33404;BME280;19751;40.274;18.268;2023-02-16T05:33:52;102584.38;;;4.85;100.00
33404;BME280;19751;40.274;18.268;2023-02-16T05:36:18;102588.50;;;4.77;100.00
33404;BME280;19751;40.274;18.268;2023-02-16T05:38:44;102584.47;;;4.71;100.00
33404;BME280;19751;40.274;18.268;2023-02-16T05:41:09;102588.84;;;4.72;100.00
33404;BME280;19751;40.274;18.268;2023-02-16T05:43:35;102588.63;;;4.75;100.00
33404;BME280;19751;40.274;18.268;2023-02-16T05:46:06;102586.72;;;4.77;100.00
33404;BME280;19751;40.274;18.268;2023-02-16T05:48:32;102593.56;;;4.81;100.00
33404;BME280;19751;40.274;18.268;2023-02-16T05:50:58;102592.47;;;4.84;100.00
33404;BME280;19751;40.274;18.268;2023-02-16T05:53:23;102595.25;;;4.82;100.00
33404;BME280;19751;40.274;18.268;2023-02-16T05:55:49;102604.13;;;4.83;100.00
33404;BME280;19751;40.274;18.268;2023-02-16T05:58:14;102603.91;;;4.86;100.00
33404;BME280;19751;40.274;18.268;2023-02-16T06:00:40;102613.75;;;4.85;100.00
33404;BME280;19751;40.274;18.268;2023-02-16T06:03:06;102605.63;;;4.87;100.00
33404;BME280;19751;40.274;18.268;2023-02-16T06:05:31;102609.91;;;4.89;100.00
33404;BME280;19751;40.274;18.268;2023-02-16T06:07:57;102611.81;;;4.87;100.00
33404;BME280;19751;40.274;18.268;2023-02-16T06:10:22;102611.81;;;4.87;100.00
33404;BME280;19751;40.274;18.268;2023-02-16T06:12:48;102618.84;;;4.88;100.00
33404;BME280;19751;40.274;18.268;2023-02-16T06:15:14;102623.97;;;4.91;100.00
33404;BME280;19751;40.274;18.268;2023-02-16T06:17:40;102623.88;;;4.93;100.00
33404;BME280;19751;40.274;18.268;2023-02-16T06:20:09;102629.97;;;4.95;100.00
33404;BME280;19751;40.274;18.268;2023-02-16T06:22:34;102633.38;;;4.97;100.00
33404;BME280;19751;40.274;18.268;2023-02-16T06:25:00;102630.38;;;5.02;100.00
33404;BME280;19751;40.274;18.268;2023-02-16T06:27:25;102642.34;;;5.09;100.00
33404;BME280;19751;40.274;18.268;2023-02-16T06:29:53;102644.38;;;5.18;100.00
33404;BME280;19751;40.274;18.268;2023-02-16T06:32:18;102641.28;;;5.24;100.00
33404;BME280;19751;40.274;18.268;2023-02-16T06:34:44;102650.59;;;5.31;100.00
33404;BME280;19751;40.274;18.268;2023-02-16T06:37:09;102657.09;;;5.40;100.00
33404;BME280;19751;40.274;18.268;2023-02-16T06:39:35;102651.22;;;5.47;100.00
33404;BME280;19751;40.274;18.268;2023-02-16T06:42:00;102654.41;;;5.53;100.00
33404;BME280;19751;40.274;18.268;2023-02-16T06:44:25;102651.28;;;5.59;100.00
33404;BME280;19751;40.274;18.268;2023-02-16T06:46:51;102649.13;;;5.64;100.00
33404;BME280;19751;40.274;18.268;2023-02-16T06:49:18;102650.28;;;5.72;100.00
33404;BME280;19751;40.274;18.268;2023-02-16T06:51:44;102649.72;;;5.80;100.00
33404;BME280;19751;40.274;18.268;2023-02-16T06:54:11;102651.75;;;5.89;100.00
33404;BME280;19751;40.274;18.268;2023-02-16T06:56:36;102654.50;;;6.01;100.00
33404;BME280;19751;40.274;18.268;2023-02-16T06:59:02;102657.03;;;6.15;100.00
33404;BME280;19751;40.274;18.268;2023-02-16T07:01:29;102653.44;;;6.27;100.00
33404;BME280;19751;40.274;18.268;2023-02-16T07:03:56;102657.88;;;6.39;100.00
33404;BME280;19751;40.274;18.268;2023-02-16T07:06:23;102655.97;;;6.53;100.00
33404;BME280;19751;40.274;18.268;2023-02-16T07:08:49;102658.44;;;6.67;100.00
33404;BME280;19751;40.274;18.268;2023-02-16T07:11:16;102664.47;;;6.82;100.00
33404;BME280;19751;40.274;18.268;2023-02-16T07:13:42;102652.78;;;6.94;100.00
33404;BME280;19751;40.274;18.268;2023-02-16T07:16:08;102657.81;;;7.10;100.00
33404;BME280;19751;40.274;18.268;2023-02-16T07:18:33;102656.59;;;7.25;100.00
33404;BME280;19751;40.274;18.268;2023-02-16T07:20:59;102659.66;;;7.43;100.00
33404;BME280;19751;40.274;18.268;2023-02-16T07:23:25;102654.19;;;7.56;100.00
33404;BME280;19751;40.274;18.268;2023-02-16T07:25:51;102647.81;;;7.68;100.00
33404;BME280;19751;40.274;18.268;2023-02-16T07:28:16;102649.38;;;7.82;100.00
33404;BME280;19751;40.274;18.268;2023-02-16T07:30:42;102648.38;;;7.94;100.00
33404;BME280;19751;40.274;18.268;2023-02-16T07:33:07;102646.63;;;8.04;100.00
33404;BME280;19751;40.274;18.268;2023-02-16T07:35:34;102651.97;;;8.15;100.00
33404;BME280;19751;40.274;18.268;2023-02-16T07:38:00;102650.09;;;8.27;100.00
33404;BME280;19751;40.274;18.268;2023-02-16T07:40:25;102654.34;;;8.41;100.00
33404;BME280;19751;40.274;18.268;2023-02-16T07:42:51;102649.53;;;8.56;100.00
33404;BME280;19751;40.274;18.268;2023-02-16T07:45:16;102651.28;;;8.66;100.00
33404;BME280;19751;40.274;18.268;2023-02-16T07:47:42;102657.75;;;8.75;100.00
33404;BME280;19751;40.274;18.268;2023-02-16T07:50:08;102662.31;;;8.84;100.00
33404;BME280;19751;40.274;18.268;2023-02-16T07:52:34;102657.16;;;8.92;100.00
33404;BME280;19751;40.274;18.268;2023-02-16T07:55:00;102655.63;;;9.00;100.00
33404;BME280;19751;40.274;18.268;2023-02-16T07:57:27;102659.09;;;9.11;100.00
33404;BME280;19751;40.274;18.268;2023-02-16T07:59:54;102649.38;;;9.20;100.00
33404;BME280;19751;40.274;18.268;2023-02-16T08:02:22;102650.28;;;9.30;100.00
33404;BME280;19751;40.274;18.268;2023-02-16T08:04:48;102651.16;;;9.40;100.00
33404;BME280;19751;40.274;18.268;2023-02-16T08:07:17;102657.44;;;9.51;100.00
33404;BME280;19751;40.274;18.268;2023-02-16T08:09:42;102653.66;;;9.63;100.00
33404;BME280;19751;40.274;18.268;2023-02-16T08:12:09;102654.53;;;9.73;100.00
33404;BME280;19751;40.274;18.268;2023-02-16T08:14:35;102643.94;;;9.81;100.00
33404;BME280;19751;40.274;18.268;2023-02-16T08:17:02;102646.78;;;9.89;100.00
33404;BME280;19751;40.274;18.268;2023-02-16T08:19:28;102644.25;;;9.98;100.00
33404;BME280;19751;40.274;18.268;2023-02-16T08:21:54;102659.56;;;10.07;100.00
33404;BME280;19751;40.274;18.268;2023-02-16T08:24:19;102651.09;;;10.21;100.00
33404;BME280;19751;40.274;18.268;2023-02-16T08:26:46;102646.84;;;10.28;100.00
33404;BME280;19751;40.274;18.268;2023-02-16T08:29:14;102646.03;;;10.37;100.00
33404;BME280;19751;40.274;18.268;2023-02-16T08:31:43;102647.16;;;10.44;100.00
33404;BME280;19751;40.274;18.268;2023-02-16T08:34:11;102650.13;;;10.51;100.00
33404;BME280;19751;40.274;18.268;2023-02-16T08:36:38;102657.50;;;10.59;100.00
33404;BME280;19751;40.274;18.268;2023-02-16T08:39:07;102651.09;;;10.69;100.00
33404;BME280;19751;40.274;18.268;2023-02-16T08:41:35;102651.09;;;10.79;100.00
33404;BME280;19751;40.274;18.268;2023-02-16T08:44:01;102657.59;;;10.86;100.00
33404;BME280;19751;40.274;18.268;2023-02-16T08:46:28;102660.75;;;10.91;100.00
33404;BME280;19751;40.274;18.268;2023-02-16T08:48:57;102653.63;;;11.00;100.00
33404;BME280;19751;40.274;18.268;2023-02-16T08:51:25;102655.59;;;11.08;100.00
33404;BME280;19751;40.274;18.268;2023-02-16T08:53:52;102647.06;;;11.12;100.00
33404;BME280;19751;40.274;18.268;2023-02-16T08:56:18;102658.09;;;11.19;100.00
33404;BME280;19751;40.274;18.268;2023-02-16T08:58:45;102659.50;;;11.23;100.00
33404;BME280;19751;40.274;18.268;2023-02-16T09:01:11;102659.22;;;11.26;100.00
33404;BME280;19751;40.274;18.268;2023-02-16T09:03:39;102657.75;;;11.32;100.00
33404;BME280;19751;40.274;18.268;2023-02-16T09:06:10;102667.44;;;11.34;100.00
33404;BME280;19751;40.274;18.268;2023-02-16T09:08:36;102660.34;;;11.33;100.00
33404;BME280;19751;40.274;18.268;2023-02-16T09:11:13;102664.88;;;11.33;100.00
33404;BME280;19751;40.274;18.268;2023-02-16T09:13:40;102665.44;;;11.36;100.00
33404;BME280;19751;40.274;18.268;2023-02-16T09:16:08;102667.38;;;11.44;100.00
33404;BME280;19751;40.274;18.268;2023-02-16T09:18:34;102664.94;;;11.51;100.00
33404;BME280;19751;40.274;18.268;2023-02-16T09:21:07;102665.50;;;11.54;100.00
33404;BME280;19751;40.274;18.268;2023-02-16T09:23:36;102668.59;;;11.59;99.41
33404;BME280;19751;40.274;18.268;2023-02-16T09:26:01;102669.16;;;11.63;99.40
33404;BME280;19751;40.274;18.268;2023-02-16T09:28:32;102671.56;;;11.66;99.19
33404;BME280;19751;40.274;18.268;2023-02-16T09:30:58;102670.25;;;11.70;97.05
33404;BME280;19751;40.274;18.268;2023-02-16T09:33:24;102677.34;;;11.71;96.21
33404;BME280;19751;40.274;18.268;2023-02-16T09:35:49;102678.03;;;11.73;94.79
33404;BME280;19751;40.274;18.268;2023-02-16T09:38:15;102678.19;;;11.72;94.24
33404;BME280;19751;40.274;18.268;2023-02-16T09:40:44;102676.34;;;11.72;94.12
33404;BME280;19751;40.274;18.268;2023-02-16T09:45:49;102680.84;;;11.81;86.73
33404;BME280;19751;40.274;18.268;2023-02-16T09:48:39;102673.41;;;11.93;90.50
33404;BME280;19751;40.274;18.268;2023-02-16T09:51:09;102674.53;;;12.00;93.29
33404;BME280;19751;40.274;18.268;2023-02-16T09:53:38;102665.56;;;12.00;94.45
33404;BME280;19751;40.274;18.268;2023-02-16T09:58:57;102664.66;;;12.09;96.48
33404;BME280;19751;40.274;18.268;2023-02-16T10:07:49;102675.84;;;12.14;96.11
33404;BME280;19751;40.274;18.268;2023-02-16T10:10:20;102672.56;;;12.20;94.15
33404;BME280;19751;40.274;18.268;2023-02-16T10:13:29;102671.63;;;12.29;92.60
33404;BME280;19751;40.274;18.268;2023-02-16T10:15:58;102660.34;;;12.34;92.91
33404;BME280;19751;40.274;18.268;2023-02-16T10:18:36;102665.47;;;12.37;91.71
33404;BME280;19751;40.274;18.268;2023-02-16T10:21:10;102656.56;;;12.44;91.24
33404;BME280;19751;40.274;18.268;2023-02-16T10:23:44;102656.25;;;12.48;90.77
33404;BME280;19751;40.274;18.268;2023-02-16T10:26:15;102655.78;;;12.52;88.52
33404;BME280;19751;40.274;18.268;2023-02-16T10:31:33;102648.84;;;12.50;89.74
33404;BME280;19751;40.274;18.268;2023-02-16T10:44:44;102639.94;;;12.75;90.34
33404;BME280;19751;40.274;18.268;2023-02-16T10:47:47;102624.44;;;12.85;87.91
33404;BME280;19751;40.274;18.268;2023-02-16T10:53:25;102620.28;;;12.91;88.44
33404;BME280;19751;40.274;18.268;2023-02-16T10:55:56;102625.56;;;13.01;88.50
33404;BME280;19751;40.274;18.268;2023-02-16T10:58:25;102623.22;;;13.06;86.71
33404;BME280;19751;40.274;18.268;2023-02-16T11:01:08;102617.13;;;13.04;86.90
33404;BME280;19751;40.274;18.268;2023-02-16T11:03:49;102620.31;;;12.99;87.27
33404;BME280;19751;40.274;18.268;2023-02-16T11:06:22;102614.56;;;12.94;87.90
33404;BME280;19751;40.274;18.268;2023-02-16T11:11:16;102613.84;;;12.92;88.92
33404;BME280;19751;40.274;18.268;2023-02-16T11:13:47;102613.91;;;13.00;88.92
33404;BME280;19751;40.274;18.268;2023-02-16T11:16:22;102609.56;;;13.07;86.38
33404;BME280;19751;40.274;18.268;2023-02-16T11:19:19;102607.50;;;13.09;85.37
33404;BME280;19751;40.274;18.268;2023-02-16T11:21:51;102602.47;;;13.14;83.93
33404;BME280;19751;40.274;18.268;2023-02-16T11:24:39;102598.28;;;13.20;82.80
33404;BME280;19751;40.274;18.268;2023-02-16T11:27:14;102594.81;;;13.28;82.49
33404;BME280;19751;40.274;18.268;2023-02-16T11:29:42;102598.72;;;13.33;82.13
33404;BME280;19751;40.274;18.268;2023-02-16T11:32:09;102584.81;;;13.28;82.25
33404;BME280;19751;40.274;18.268;2023-02-16T11:34:39;102579.72;;;13.25;82.37
33404;BME280;19751;40.274;18.268;2023-02-16T11:37:45;102582.44;;;13.25;80.23
33404;BME280;19751;40.274;18.268;2023-02-16T11:40:25;102577.91;;;13.34;78.21
33404;BME280;19751;40.274;18.268;2023-02-16T11:42:53;102574.06;;;13.45;76.80
33404;BME280;19751;40.274;18.268;2023-02-16T11:47:55;102563.94;;;13.55;76.16
33404;BME280;19751;40.274;18.268;2023-02-16T11:50:35;102563.59;;;13.50;76.66
33404;BME280;19751;40.274;18.268;2023-02-16T11:55:35;102553.00;;;13.64;76.19
33404;BME280;19751;40.274;18.268;2023-02-16T12:06:16;102534.69;;;13.66;75.73
33404;BME280;19751;40.274;18.268;2023-02-16T12:09:00;102521.84;;;13.77;76.73
33404;BME280;19751;40.274;18.268;2023-02-16T12:11:53;102520.84;;;13.86;76.58
33404;BME280;19751;40.274;18.268;2023-02-16T12:22:47;102513.22;;;14.06;70.77
33404;BME280;19751;40.274;18.268;2023-02-16T12:27:58;102506.13;;;14.05;69.20
33404;BME280;19751;40.274;18.268;2023-02-16T12:30:38;102496.13;;;14.05;68.36
33404;BME280;19751;40.274;18.268;2023-02-16T12:35:47;102488.34;;;14.18;64.30
33404;BME280;19751;40.274;18.268;2023-02-16T12:43:32;102488.16;;;14.12;63.12
33404;BME280;19751;40.274;18.268;2023-02-16T12:46:26;102482.75;;;14.20;63.10
33404;BME280;19751;40.274;18.268;2023-02-16T12:49:10;102482.94;;;14.27;62.65
33404;BME280;19751;40.274;18.268;2023-02-16T12:51:51;102484.59;;;14.36;60.60
33404;BME280;19751;40.274;18.268;2023-02-16T12:54:51;102486.09;;;14.38;60.17
33404;BME280;19751;40.274;18.268;2023-02-16T12:57:22;102478.16;;;14.37;60.71
33404;BME280;19751;40.274;18.268;2023-02-16T13:00:00;102477.97;;;14.38;59.93
33404;BME280;19751;40.274;18.268;2023-02-16T13:02:41;102473.38;;;14.39;60.18
33404;BME280;19751;40.274;18.268;2023-02-16T13:05:25;102474.41;;;14.38;60.39
33404;BME280;19751;40.274;18.268;2023-02-16T13:08:25;102470.53;;;14.32;61.10
33404;BME280;19751;40.274;18.268;2023-02-16T13:13:36;102468.84;;;14.39;59.80
33404;BME280;19751;40.274;18.268;2023-02-16T13:16:29;102470.00;;;14.45;58.85
33404;BME280;19751;40.274;18.268;2023-02-16T13:18:52;102473.06;;;14.50;58.39
33404;BME280;19751;40.274;18.268;2023-02-16T13:27:01;102473.56;;;14.54;57.56
33404;BME280;19751;40.274;18.268;2023-02-16T13:45:25;102458.44;;;15.07;56.06
33404;BME280;19751;40.274;18.268;2023-02-16T13:47:53;102457.22;;;15.09;56.03
33404;BME280;19751;40.274;18.268;2023-02-16T13:52:47;102462.47;;;15.19;55.24
33404;BME280;19751;40.274;18.268;2023-02-16T13:55:35;102460.06;;;15.24;54.81
33404;BME280;19751;40.274;18.268;2023-02-16T14:00:47;102457.59;;;15.37;54.47
33404;BME280;19751;40.274;18.268;2023-02-16T14:05:48;102453.34;;;15.66;53.82
33404;BME280;19751;40.274;18.268;2023-02-16T14:08:40;102454.97;;;15.75;52.80
33404;BME280;19751;40.274;18.268;2023-02-16T14:11:08;102453.03;;;15.84;52.61
33404;BME280;19751;40.274;18.268;2023-02-16T14:18:46;102449.19;;;16.16;52.24
33404;BME280;19751;40.274;18.268;2023-02-16T14:23:55;102450.78;;;16.10;52.60
33404;BME280;19751;40.274;18.268;2023-02-16T14:26:21;102447.03;;;16.11;52.82
33404;BME280;19751;40.274;18.268;2023-02-16T14:29:09;102449.19;;;16.16;52.57
33404;BME280;19751;40.274;18.268;2023-02-16T14:31:52;102452.56;;;16.18;52.87
33404;BME280;19751;40.274;18.268;2023-02-16T14:34:32;102452.94;;;16.15;54.33
33404;BME280;19751;40.274;18.268;2023-02-16T14:39:46;102451.06;;;16.15;56.61
33404;BME280;19751;40.274;18.268;2023-02-16T14:42:20;102461.75;;;16.17;57.34
33404;BME280;19751;40.274;18.268;2023-02-16T14:50:12;102466.16;;;15.80;59.43
33404;BME280;19751;40.274;18.268;2023-02-16T14:56:25;102470.81;;;15.40;62.53
33404;BME280;19751;40.274;18.268;2023-02-16T14:58:54;102470.13;;;15.15;63.47
33404;BME280;19751;40.274;18.268;2023-02-16T15:01:24;102461.50;;;15.04;64.66
33404;BME280;19751;40.274;18.268;2023-02-16T15:03:54;102467.16;;;15.25;64.99
33404;BME280;19751;40.274;18.268;2023-02-16T15:08:58;102453.22;;;18.09;55.23
33404;BME280;19751;40.274;18.268;2023-02-16T15:11:33;102447.28;;;20.24;48.52
33404;BME280;19751;40.274;18.268;2023-02-16T15:14:10;102435.84;;;21.57;44.50
33404;BME280;19751;40.274;18.268;2023-02-16T15:16:40;102439.06;;;21.79;43.64
33404;BME280;19751;40.274;18.268;2023-02-16T15:19:10;102438.88;;;21.04;43.76
33404;BME280;19751;40.274;18.268;2023-02-16T15:21:36;102441.81;;;19.98;45.71
33404;BME280;19751;40.274;18.268;2023-02-16T15:24:02;102452.91;;;18.88;47.98
33404;BME280;19751;40.274;18.268;2023-02-16T15:26:33;102451.38;;;17.88;50.16
33404;BME280;19751;40.274;18.268;2023-02-16T15:31:41;102447.06;;;17.58;52.24
33404;BME280;19751;40.274;18.268;2023-02-16T15:34:12;102452.50;;;17.36;52.78
33404;BME280;19751;40.274;18.268;2023-02-16T15:36:41;102447.81;;;16.94;53.84
33404;BME280;19751;40.274;18.268;2023-02-16T15:39:31;102451.66;;;16.40;55.34
33404;BME280;19751;40.274;18.268;2023-02-16T15:44:41;102448.50;;;15.53;58.26